createdAt,value
2022-11-24T00:01:31.646Z,60.08
2022-11-24T00:04:05.413Z,60.96
2022-11-24T00:06:36.021Z,65.91
2022-11-24T00:09:05.407Z,70.14
2022-11-24T00:11:35.943Z,67.27
2022-11-24T00:14:06.336Z,64.21
2022-11-24T00:16:36.950Z,60.39
2022-11-24T00:19:12.746Z,55.96
2022-11-24T00:21:44.024Z,54.16
2022-11-24T00:24:12.219Z,55.89
2022-11-24T00:26:40.591Z,56.93
2022-11-24T00:29:11.485Z,58.75
2022-11-24T00:31:41.403Z,60.14
2022-11-24T00:34:14.531Z,64.21
2022-11-24T00:36:43.429Z,69.90
2022-11-24T00:39:14.319Z,64.98
2022-11-24T00:41:43.735Z,61.60
2022-11-24T00:44:12.792Z,57.25
2022-11-24T00:46:42.157Z,54.97
2022-11-24T00:49:11.983Z,56.24
2022-11-24T00:51:40.076Z,57.95
2022-11-24T00:54:08.396Z,60.15
2022-11-24T00:56:38.210Z,61.14
2022-11-24T00:59:06.235Z,66.52
2022-11-24T01:01:34.369Z,69.72
2022-11-24T01:04:02.856Z,67.60
2022-11-24T01:06:32.983Z,63.08
2022-11-24T01:09:01.627Z,56.87
2022-11-24T01:12:01.430Z,54.12
2022-11-24T01:14:30.871Z,55.03
2022-11-24T01:17:01.169Z,56.73
2022-11-24T01:19:29.237Z,58.39
2022-11-24T01:21:57.193Z,59.79
2022-11-24T01:24:26.052Z,61.51
2022-11-24T01:26:54.167Z,66.53
2022-11-24T01:29:22.352Z,72.09
2022-11-24T01:31:50.272Z,66.31
2022-11-24T01:34:18.476Z,61.10
2022-11-24T01:36:46.495Z,52.79
2022-11-24T01:39:14.872Z,52.22
2022-11-24T01:41:43.322Z,54.57
2022-11-24T01:44:42.480Z,56.20
2022-11-24T01:47:37.267Z,57.33
2022-11-24T01:50:06.173Z,58.92
2022-11-24T01:52:53.013Z,61.17
2022-11-24T01:55:25.917Z,67.44
2022-11-24T01:58:00.699Z,71.27
2022-11-24T02:00:28.873Z,63.95
2022-11-24T02:02:59.869Z,55.06
2022-11-24T02:05:39.236Z,52.51
2022-11-24T02:08:17.505Z,53.45
2022-11-24T02:10:46.444Z,56.30
2022-11-24T02:13:15.881Z,57.87
2022-11-24T02:15:43.964Z,59.11
2022-11-24T02:18:12.001Z,61.05
2022-11-24T02:20:40.123Z,67.30
2022-11-24T02:23:17.350Z,73.61
2022-11-24T02:26:19.546Z,64.32
2022-11-24T02:28:47.895Z,52.41
2022-11-24T02:31:15.917Z,52.01
2022-11-24T02:33:44.576Z,55.58
2022-11-24T02:36:12.574Z,57.08
2022-11-24T02:38:40.728Z,58.20
2022-11-24T02:41:17.950Z,59.99
2022-11-24T02:43:56.039Z,68.72
2022-11-24T02:46:24.486Z,71.03
2022-11-24T02:48:54.939Z,63.30
2022-11-24T02:51:23.518Z,52.11
2022-11-24T02:53:51.536Z,49.96
2022-11-24T02:56:19.569Z,52.22
2022-11-24T02:58:47.768Z,54.53
2022-11-24T03:01:15.958Z,56.61
2022-11-24T03:03:44.586Z,58.15
2022-11-24T03:06:12.516Z,59.38
2022-11-24T03:08:40.823Z,60.30
2022-11-24T03:11:09.013Z,67.79
2022-11-24T03:13:37.132Z,72.04
2022-11-24T03:16:10.445Z,60.81
2022-11-24T03:18:39.383Z,52.00
2022-11-24T03:21:07.727Z,52.25
2022-11-24T03:23:36.187Z,54.14
2022-11-24T03:26:12.277Z,55.90
2022-11-24T03:28:41.310Z,57.18
2022-11-24T03:31:10.233Z,58.94
2022-11-24T03:33:38.981Z,60.68
2022-11-24T03:36:08.436Z,66.95
2022-11-24T03:38:36.574Z,72.21
2022-11-24T03:41:04.600Z,62.98
2022-11-24T03:43:33.036Z,52.46
2022-11-24T03:46:01.307Z,50.88
2022-11-24T03:48:29.407Z,52.51
2022-11-24T03:50:59.866Z,54.21
2022-11-24T03:53:30.374Z,56.97
2022-11-24T03:55:58.597Z,58.22
2022-11-24T03:58:27.106Z,59.20
2022-11-24T04:00:56.541Z,61.23
2022-11-24T04:03:24.923Z,69.80
2022-11-24T04:05:53.383Z,71.65
2022-11-24T04:08:22.385Z,60.43
2022-11-24T04:10:52.507Z,50.27
2022-11-24T04:13:24.016Z,50.27
2022-11-24T04:15:53.698Z,52.71
2022-11-24T04:18:22.181Z,54.37
2022-11-24T04:20:51.961Z,56.47
2022-11-24T04:23:20.069Z,58.23
2022-11-24T04:25:48.927Z,59.39
2022-11-24T04:28:17.161Z,60.52
2022-11-24T04:30:45.324Z,69.37
2022-11-24T04:33:13.549Z,70.61
2022-11-24T04:35:41.606Z,60.40
2022-11-24T04:38:09.609Z,51.00
2022-11-24T04:40:38.859Z,50.83
2022-11-24T04:43:07.154Z,52.79
2022-11-24T04:45:35.824Z,55.16
2022-11-24T04:48:04.925Z,57.13
2022-11-24T04:50:33.026Z,58.50
2022-11-24T04:53:01.049Z,59.89
2022-11-24T04:55:29.382Z,67.60
2022-11-24T04:57:57.525Z,70.97
2022-11-24T05:00:25.473Z,61.41
2022-11-24T05:02:53.442Z,50.54
2022-11-24T05:05:21.760Z,50.03
2022-11-24T05:07:49.850Z,52.71
2022-11-24T05:10:36.109Z,54.96
2022-11-24T05:13:06.951Z,56.67
2022-11-24T05:15:36.957Z,58.11
2022-11-24T05:18:07.083Z,59.54
2022-11-24T05:20:35.644Z,60.37
2022-11-24T05:23:08.485Z,67.53
2022-11-24T05:25:36.929Z,71.67
2022-11-24T05:28:10.141Z,61.48
2022-11-24T05:30:40.253Z,51.15
2022-11-24T05:33:12.357Z,49.61
2022-11-24T05:35:40.576Z,51.29
2022-11-24T05:38:08.776Z,54.41
2022-11-24T05:40:37.996Z,56.33
2022-11-24T05:43:10.228Z,58.26
2022-11-24T05:45:38.183Z,59.06
2022-11-24T05:48:08.810Z,60.54
2022-11-24T05:50:36.916Z,68.29
2022-11-24T05:53:06.576Z,71.05
2022-11-24T05:55:35.343Z,61.84
2022-11-24T05:58:06.368Z,51.97
2022-11-24T06:00:35.457Z,50.51
2022-11-24T06:03:03.996Z,52.85
2022-11-24T06:05:32.167Z,55.27
2022-11-24T06:08:00.967Z,56.26
2022-11-24T06:10:29.074Z,58.35
2022-11-24T06:12:57.357Z,59.82
2022-11-24T06:15:25.293Z,61.57
2022-11-24T06:17:56.482Z,69.06
2022-11-24T06:20:31.209Z,70.82
2022-11-24T06:23:01.868Z,63.79
2022-11-24T06:25:30.236Z,54.16
2022-11-24T06:27:58.255Z,51.47
2022-11-24T06:30:27.021Z,53.60
2022-11-24T06:32:55.623Z,56.00
2022-11-24T06:35:23.595Z,57.75
2022-11-24T06:37:51.980Z,58.90
2022-11-24T06:40:20.079Z,60.15
2022-11-24T06:42:52.508Z,61.06
2022-11-24T06:45:20.600Z,70.90
2022-11-24T06:47:48.827Z,68.74
2022-11-24T06:50:17.369Z,59.02
2022-11-24T06:52:45.572Z,51.16
2022-11-24T06:55:13.850Z,52.07
2022-11-24T06:57:42.207Z,54.32
2022-11-24T07:00:11.366Z,56.40
2022-11-24T07:02:45.512Z,57.31
2022-11-24T07:05:15.251Z,59.20
2022-11-24T07:07:51.045Z,60.91
2022-11-24T07:10:19.597Z,69.81
2022-11-24T07:12:47.862Z,69.60
2022-11-24T07:15:15.790Z,57.19
2022-11-24T07:17:43.934Z,51.05
2022-11-24T07:20:13.918Z,52.32
2022-11-24T07:22:41.967Z,54.67
2022-11-24T07:25:11.200Z,56.18
2022-11-24T07:27:39.664Z,58.03
2022-11-24T07:30:10.170Z,59.90
2022-11-24T07:32:38.388Z,61.46
2022-11-24T07:35:06.785Z,70.12
2022-11-24T07:37:34.705Z,70.31
2022-11-24T07:40:02.848Z,60.03
2022-11-24T07:42:30.689Z,51.88
2022-11-24T07:44:58.523Z,51.98
2022-11-24T07:47:29.406Z,54.11
2022-11-24T07:49:57.238Z,56.40
2022-11-24T07:52:26.824Z,57.99
2022-11-24T07:54:54.924Z,59.88
2022-11-24T07:57:23.761Z,61.19
2022-11-24T07:59:51.611Z,68.73
2022-11-24T08:02:19.916Z,69.63
2022-11-24T08:04:47.735Z,61.55
2022-11-24T08:07:15.907Z,54.84
2022-11-24T08:09:43.904Z,52.88
2022-11-24T08:12:11.885Z,54.74
2022-11-24T08:14:39.789Z,56.60
2022-11-24T08:17:08.667Z,58.17
2022-11-24T08:19:37.157Z,59.92
2022-11-24T08:22:05.236Z,61.05
2022-11-24T08:24:33.690Z,67.69
2022-11-24T08:27:01.740Z,70.52
2022-11-24T08:29:30.506Z,64.09
2022-11-24T08:31:58.648Z,59.61
2022-11-24T08:34:29.392Z,52.17
2022-11-24T08:36:57.218Z,51.28
2022-11-24T08:39:25.294Z,53.69
2022-11-24T08:41:53.142Z,55.70
2022-11-24T08:44:21.091Z,57.55
2022-11-24T08:46:50.204Z,58.64
2022-11-24T08:49:19.039Z,60.24
2022-11-24T08:51:48.650Z,66.49
2022-11-24T08:54:20.891Z,70.44
2022-11-24T08:56:55.755Z,62.04
2022-11-24T08:59:25.191Z,53.89
2022-11-24T09:01:53.170Z,51.97
2022-11-24T09:04:21.093Z,53.84
2022-11-24T09:06:49.684Z,55.89
2022-11-24T09:09:18.368Z,57.69
2022-11-24T09:11:47.075Z,59.44
2022-11-24T09:14:15.385Z,60.95
2022-11-24T09:16:43.241Z,68.57
2022-11-24T09:19:11.089Z,69.37
2022-11-24T09:21:39.215Z,60.71
2022-11-24T09:24:08.197Z,53.05
2022-11-24T09:26:44.596Z,52.26
2022-11-24T09:29:16.308Z,54.26
2022-11-24T09:31:48.469Z,56.36
2022-11-24T09:34:17.254Z,57.47
2022-11-24T09:36:45.133Z,59.06
2022-11-24T09:39:13.015Z,60.44
2022-11-24T09:42:06.755Z,66.29
2022-11-24T09:44:58.626Z,69.33
2022-11-24T09:47:49.842Z,62.42
2022-11-24T09:50:31.959Z,54.25
2022-11-24T09:53:06.287Z,54.04
2022-11-24T09:55:38.168Z,55.40
2022-11-24T09:58:21.487Z,58.21
2022-11-24T10:00:53.346Z,59.24
2022-11-24T10:03:43.728Z,60.53
2022-11-24T10:06:39.184Z,70.04
2022-11-24T10:09:13.440Z,67.25
2022-11-24T10:12:03.419Z,58.49
2022-11-24T10:14:53.045Z,51.79
2022-11-24T10:17:42.868Z,53.21
2022-11-24T10:20:28.548Z,54.97
2022-11-24T10:23:03.033Z,56.79
2022-11-24T10:25:50.716Z,59.36
2022-11-24T10:28:19.392Z,60.25
2022-11-24T10:30:47.313Z,67.95
2022-11-24T10:33:19.712Z,69.79
2022-11-24T10:35:53.382Z,58.79
2022-11-24T10:38:21.981Z,51.32
2022-11-24T10:41:07.558Z,52.82
2022-11-24T10:43:42.689Z,54.71
2022-11-24T10:46:24.760Z,56.27
2022-11-24T10:49:04.041Z,57.65
2022-11-24T10:52:05.833Z,60.07
2022-11-24T10:54:36.135Z,60.43
2022-11-24T10:57:04.226Z,66.70
2022-11-24T10:59:38.505Z,73.73
2022-11-24T11:02:34.524Z,64.12
2022-11-24T11:05:42.576Z,51.94
2022-11-24T11:08:19.259Z,51.68
2022-11-24T11:11:11.214Z,54.83
2022-11-24T11:13:51.962Z,56.40
2022-11-24T11:16:27.796Z,57.95
2022-11-24T11:18:56.288Z,59.14
2022-11-24T11:21:39.653Z,61.17
2022-11-24T11:24:18.550Z,70.19
2022-11-24T11:26:46.878Z,68.67
2022-11-24T11:35:16.575Z,52.06
2022-11-24T11:37:45.890Z,54.63
2022-11-24T11:40:20.585Z,56.92
2022-11-24T11:43:08.061Z,58.58
2022-11-24T11:45:38.299Z,59.99
2022-11-24T11:48:12.817Z,60.90
2022-11-24T11:51:21.237Z,70.42
2022-11-24T11:53:47.600Z,67.09
2022-11-24T11:56:21.974Z,60.16
2022-11-24T11:59:21.644Z,49.68
2022-11-24T12:02:08.295Z,49.87
2022-11-24T12:04:53.097Z,52.66
2022-11-24T12:08:13.401Z,55.26
2022-11-24T12:10:54.126Z,57.27
2022-11-24T12:13:44.406Z,58.26
2022-11-24T12:16:42.104Z,59.70
2022-11-24T12:19:32.236Z,60.58
2022-11-24T12:22:06.273Z,72.34
2022-11-24T12:25:23.032Z,67.37
2022-11-24T12:28:18.053Z,56.08
2022-11-24T12:31:04.189Z,52.81
2022-11-24T12:33:59.555Z,54.98
2022-11-24T12:36:49.480Z,56.99
2022-11-24T12:39:47.360Z,58.35
2022-11-24T12:42:35.913Z,60.04
2022-11-24T12:45:13.214Z,61.68
2022-11-24T12:48:01.203Z,71.73
2022-11-24T12:50:40.194Z,68.84
2022-11-24T12:53:29.243Z,56.20
2022-11-24T12:56:21.326Z,50.82
2022-11-24T12:59:06.336Z,52.48
2022-11-24T13:01:41.842Z,55.43
2022-11-24T13:04:33.105Z,56.90
2022-11-24T13:07:10.930Z,58.24
2022-11-24T13:10:17.387Z,60.08
2022-11-24T13:13:05.263Z,71.15
2022-11-24T13:16:07.120Z,65.82
2022-11-24T13:18:57.179Z,51.43
2022-11-24T13:21:31.227Z,50.95
2022-11-24T13:24:01.525Z,53.29
2022-11-24T13:26:41.484Z,55.47
2022-11-24T13:29:28.991Z,57.29
2022-11-24T13:32:03.339Z,58.87
2022-11-24T13:34:55.311Z,60.34
2022-11-24T13:37:26.569Z,61.27
2022-11-24T13:40:14.366Z,70.69
2022-11-24T13:42:57.800Z,68.14
2022-11-24T13:45:45.340Z,53.96
2022-11-24T13:48:29.456Z,51.21
2022-11-24T13:50:57.958Z,53.70
2022-11-24T13:53:38.477Z,56.26
2022-11-24T13:56:12.900Z,57.94
2022-11-24T13:58:44.287Z,59.20
2022-11-24T14:01:43.867Z,60.65
2022-11-24T14:04:30.631Z,70.22
2022-11-24T14:07:09.827Z,68.06
2022-11-24T14:09:51.328Z,52.80
2022-11-24T14:12:25.313Z,50.89
2022-11-24T14:14:57.728Z,53.05
2022-11-24T14:17:28.858Z,55.37
2022-11-24T14:19:58.250Z,57.21
2022-11-24T14:22:34.324Z,58.86
2022-11-24T14:25:03.664Z,60.09
2022-11-24T14:27:38.773Z,61.09
2022-11-24T14:30:10.057Z,69.87
2022-11-24T14:32:38.379Z,68.57
2022-11-24T14:35:43.861Z,56.77
2022-11-24T14:38:14.798Z,49.78
2022-11-24T14:40:48.991Z,52.08
2022-11-24T14:43:26.033Z,54.40
2022-11-24T14:46:10.366Z,56.55
2022-11-24T14:48:58.919Z,58.48
2022-11-24T14:51:34.629Z,59.90
2022-11-24T14:54:14.226Z,61.41
2022-11-24T14:56:55.858Z,70.17
2022-11-24T14:59:27.105Z,67.96
2022-11-24T15:01:55.394Z,57.76
2022-11-24T15:07:29.252Z,52.09
2022-11-24T15:10:02.874Z,54.85
2022-11-24T15:12:36.071Z,56.76
2022-11-24T15:15:05.669Z,58.78
2022-11-24T15:17:34.433Z,60.30
2022-11-24T15:20:10.832Z,61.71
2022-11-24T15:22:41.677Z,70.85
2022-11-24T15:25:28.790Z,66.89
2022-11-24T15:27:56.880Z,57.86
2022-11-24T15:30:27.669Z,52.05
2022-11-24T15:32:57.756Z,53.16
2022-11-24T15:35:30.584Z,55.39
2022-11-24T15:37:59.059Z,57.36
2022-11-24T15:40:27.755Z,58.65
2022-11-24T15:42:59.612Z,60.36
2022-11-24T15:45:34.171Z,61.52
2022-11-24T15:48:02.133Z,69.81
2022-11-24T15:50:30.104Z,69.10
2022-11-24T15:52:58.355Z,58.29
2022-11-24T15:55:26.310Z,50.44
2022-11-24T15:57:54.399Z,51.38
2022-11-24T16:00:24.082Z,53.81
2022-11-24T16:02:52.073Z,55.68
2022-11-24T16:05:20.469Z,57.62
2022-11-24T16:07:48.671Z,59.28
2022-11-24T16:10:26.029Z,60.62
2022-11-24T16:12:54.258Z,67.62
2022-11-24T16:15:22.118Z,67.59
2022-11-24T16:17:51.376Z,61.10
2022-11-24T16:20:19.702Z,51.79
2022-11-24T16:22:47.658Z,50.15
2022-11-24T16:25:16.000Z,52.36
2022-11-24T16:27:44.177Z,54.60
2022-11-24T16:30:13.364Z,56.84
2022-11-24T16:32:43.578Z,58.43
2022-11-24T16:35:12.027Z,59.81
2022-11-24T16:37:40.062Z,61.31
2022-11-24T16:40:08.651Z,68.97
2022-11-24T16:42:36.666Z,69.60
2022-11-24T16:45:04.854Z,58.10
2022-11-24T16:47:32.764Z,49.97
2022-11-24T16:50:01.364Z,51.12
2022-11-24T16:52:29.513Z,53.64
2022-11-24T16:54:57.749Z,55.73
2022-11-24T16:57:25.852Z,57.61
2022-11-24T16:59:57.378Z,59.35
2022-11-24T17:02:25.972Z,60.89
2022-11-24T17:05:00.147Z,69.23
2022-11-24T17:07:28.179Z,68.01
2022-11-24T17:09:56.083Z,55.05
2022-11-24T17:12:24.374Z,51.86
2022-11-24T17:15:09.735Z,53.81
2022-11-24T17:18:01.266Z,55.78
2022-11-24T17:20:28.534Z,58.32
2022-11-24T17:22:57.526Z,59.93
2022-11-24T17:25:25.850Z,61.43
2022-11-24T17:27:54.458Z,69.79
2022-11-24T17:30:22.965Z,68.82
2022-11-24T17:32:56.909Z,57.34
2022-11-24T17:35:25.412Z,50.57
2022-11-24T17:37:53.325Z,52.19
2022-11-24T17:40:28.487Z,54.55
2022-11-24T17:42:59.873Z,56.79
2022-11-24T17:45:29.048Z,58.65
2022-11-24T17:48:00.847Z,60.26
2022-11-24T17:50:28.745Z,61.65
2022-11-24T17:52:56.850Z,69.84
2022-11-24T17:55:25.004Z,68.75
2022-11-24T17:57:53.079Z,56.25
2022-11-24T18:00:21.321Z,52.65
2022-11-24T18:02:49.726Z,54.64
2022-11-24T18:05:17.941Z,56.82
2022-11-24T18:07:45.928Z,58.91
2022-11-24T18:10:14.541Z,60.23
2022-11-24T18:12:42.525Z,61.64
2022-11-24T18:15:10.830Z,70.27
2022-11-24T18:17:39.935Z,68.27
2022-11-24T18:20:08.798Z,56.70
2022-11-24T18:23:04.549Z,51.23
2022-11-24T18:25:28.365Z,52.98
2022-11-24T18:27:56.524Z,55.35
2022-11-24T18:30:24.886Z,57.48
2022-11-24T18:32:53.318Z,59.18
2022-11-24T18:35:22.912Z,60.78
2022-11-24T18:37:51.774Z,67.22
2022-11-24T18:40:20.036Z,68.53
2022-11-24T18:42:51.594Z,60.18
2022-11-24T18:45:19.471Z,51.28
2022-11-24T18:47:47.703Z,51.18
2022-11-24T18:50:17.413Z,53.48
2022-11-24T18:52:45.817Z,55.83
2022-11-24T18:55:14.116Z,57.73
2022-11-24T18:57:42.253Z,59.29
2022-11-24T19:00:12.913Z,60.73
2022-11-24T19:02:41.398Z,67.43
2022-11-24T19:05:09.574Z,68.87
2022-11-24T19:07:38.973Z,59.50
2022-11-24T19:10:08.154Z,51.08
2022-11-24T19:12:36.624Z,51.63
2022-11-24T19:15:04.894Z,53.99
2022-11-24T19:17:32.947Z,56.18
2022-11-24T19:20:00.973Z,57.99
2022-11-24T19:22:28.964Z,59.68
2022-11-24T19:24:57.169Z,61.09
2022-11-24T19:27:25.644Z,67.41
2022-11-24T19:29:55.042Z,69.91
2022-11-24T19:32:23.291Z,59.99
2022-11-24T19:34:51.619Z,51.84
2022-11-24T19:37:19.481Z,52.18
2022-11-24T19:39:48.004Z,54.37
2022-11-24T19:42:16.562Z,56.75
2022-11-24T19:44:44.565Z,58.55
2022-11-24T19:47:16.129Z,60.07
2022-11-24T19:49:46.020Z,61.59
2022-11-24T19:52:14.113Z,67.72
2022-11-24T19:54:42.332Z,69.93
2022-11-24T19:57:11.174Z,64.02
2022-11-24T19:59:39.158Z,58.00
2022-11-24T20:02:07.291Z,53.85
2022-11-24T20:04:38.517Z,55.10
2022-11-24T20:07:08.139Z,57.52
2022-11-24T20:09:36.258Z,59.27
2022-11-24T20:12:04.568Z,60.59
2022-11-24T20:14:32.946Z,66.15
2022-11-24T20:17:01.426Z,69.28
2022-11-24T20:19:32.751Z,63.81
2022-11-24T20:22:04.366Z,59.34
2022-11-24T20:24:32.927Z,53.08
2022-11-24T20:27:01.375Z,53.57
2022-11-24T20:29:29.304Z,55.93
2022-11-24T20:31:57.588Z,57.81
2022-11-24T20:34:27.165Z,59.61
2022-11-24T20:36:55.453Z,61.07
2022-11-24T20:39:27.976Z,67.06
2022-11-24T20:41:56.518Z,70.10
2022-11-24T20:44:26.977Z,59.58
2022-11-24T20:46:57.511Z,50.64
2022-11-24T20:49:26.635Z,51.18
2022-11-24T20:51:56.958Z,53.66
2022-11-24T20:54:26.461Z,56.19
2022-11-24T20:56:54.594Z,58.00
2022-11-24T20:59:24.647Z,59.49
2022-11-24T21:01:55.898Z,60.92
2022-11-24T21:04:26.771Z,68.66
2022-11-24T21:06:55.615Z,68.54
2022-11-24T21:09:27.316Z,57.41
2022-11-24T21:11:55.327Z,49.84
2022-11-24T21:14:24.511Z,51.06
2022-11-24T21:16:52.670Z,53.86
2022-11-24T21:19:21.381Z,56.15
2022-11-24T21:21:50.141Z,57.93
2022-11-24T21:24:22.128Z,59.45
2022-11-24T21:26:53.001Z,61.14
2022-11-24T21:29:25.581Z,69.55
2022-11-24T21:31:53.857Z,68.42
2022-11-24T21:34:21.847Z,57.93
2022-11-24T21:36:49.992Z,50.05
2022-11-24T21:39:18.757Z,51.13
2022-11-24T21:41:47.805Z,53.76
2022-11-24T21:44:16.038Z,55.93
2022-11-24T21:46:51.039Z,58.07
2022-11-24T21:49:23.959Z,59.60
2022-11-24T21:51:55.817Z,61.16
2022-11-24T21:54:24.782Z,69.48
2022-11-24T21:56:54.457Z,68.10
2022-11-24T21:59:22.688Z,56.49
2022-11-24T22:01:51.122Z,50.36
2022-11-24T22:04:19.033Z,52.13
2022-11-24T22:06:46.945Z,54.68
2022-11-24T22:09:18.168Z,57.03
2022-11-24T22:11:49.722Z,58.67
2022-11-24T22:14:18.259Z,60.34
2022-11-24T22:16:46.721Z,61.66
2022-11-24T22:19:14.694Z,68.33
2022-11-24T22:21:42.740Z,70.34
2022-11-24T22:24:11.309Z,61.25
2022-11-24T22:26:39.214Z,52.62
2022-11-24T22:29:08.381Z,52.29
2022-11-24T22:31:36.292Z,54.63
2022-11-24T22:34:04.920Z,56.98
2022-11-24T22:36:32.894Z,58.64
2022-11-24T22:39:04.195Z,60.50
2022-11-24T22:41:34.638Z,67.40
2022-11-24T22:44:02.765Z,68.41
2022-11-24T22:46:32.378Z,60.59
2022-11-24T22:49:02.005Z,51.86
2022-11-24T22:51:34.778Z,51.14
2022-11-24T22:54:04.687Z,53.58
2022-11-24T22:56:33.732Z,55.72
2022-11-24T22:59:02.368Z,58.20
2022-11-24T23:01:31.594Z,60.10
2022-11-24T23:03:59.553Z,61.67
2022-11-24T23:06:29.539Z,70.22
2022-11-24T23:08:59.641Z,68.52
2022-11-24T23:11:37.761Z,57.34
2022-11-24T23:14:14.534Z,50.46
2022-11-24T23:16:43.141Z,52.40
2022-11-24T23:19:11.441Z,54.88
2022-11-24T23:21:39.821Z,56.81
2022-11-24T23:24:08.714Z,58.39
2022-11-24T23:26:41.333Z,60.32
2022-11-24T23:29:10.789Z,61.84
2022-11-24T23:31:41.902Z,70.36
2022-11-24T23:34:10.370Z,68.60
2022-11-24T23:36:43.538Z,58.29
2022-11-24T23:39:13.647Z,50.41
2022-11-24T23:41:41.857Z,51.50
2022-11-24T23:44:09.715Z,54.03
2022-11-24T23:46:38.092Z,56.01
2022-11-24T23:49:06.505Z,58.10
2022-11-24T23:51:35.099Z,59.64
2022-11-24T23:54:08.078Z,61.21
2022-11-24T23:56:36.830Z,69.37
2022-11-24T23:59:05.379Z,68.55
